createdAt,value
2019-01-14T00:03:38.565Z,7.56
2019-01-14T00:07:45.570Z,7.52
2019-01-14T00:11:53.146Z,7.54
2019-01-14T00:15:59.996Z,7.58
2019-01-14T00:20:08.013Z,7.64
2019-01-14T00:24:15.137Z,7.64
2019-01-14T00:28:22.131Z,7.62
2019-01-14T00:32:29.013Z,7.74
2019-01-14T00:36:35.977Z,7.74
2019-01-14T00:40:45.796Z,7.68
2019-01-14T00:44:52.992Z,7.73
2019-01-14T00:49:00.085Z,7.76
2019-01-14T00:53:07.074Z,7.77
2019-01-14T00:57:15.885Z,7.68
2019-01-14T01:01:22.998Z,7.73
2019-01-14T01:05:30.196Z,7.78
2019-01-14T01:09:37.282Z,7.66
2019-01-14T01:13:44.263Z,7.66
2019-01-14T01:17:52.192Z,7.55
2019-01-14T01:22:01.499Z,7.51
2019-01-14T01:26:08.701Z,7.51
2019-01-14T01:30:18.735Z,7.54
2019-01-14T01:34:25.854Z,7.53
2019-01-14T01:38:32.821Z,7.54
2019-01-14T01:42:39.855Z,7.51
2019-01-14T01:46:46.773Z,7.58
2019-01-14T01:50:53.752Z,7.59
2019-01-14T01:55:04.746Z,7.63
2019-01-14T01:59:11.941Z,7.53
2019-01-14T02:03:18.864Z,7.57
2019-01-14T02:07:25.939Z,7.54
2019-01-14T02:11:32.830Z,7.52
2019-01-14T02:15:39.669Z,7.40
2019-01-14T02:19:46.607Z,7.42
2019-01-14T02:23:53.684Z,7.38
2019-01-14T02:28:01.629Z,7.43
2019-01-14T02:32:08.544Z,7.32
2019-01-14T02:36:15.568Z,7.28
2019-01-14T02:40:23.884Z,7.27
2019-01-14T02:44:30.914Z,7.28
2019-01-14T02:48:37.846Z,7.23
2019-01-14T02:52:44.793Z,7.18
2019-01-14T02:56:51.947Z,7.11
2019-01-14T03:00:58.771Z,7.06
2019-01-14T03:05:06.444Z,7.07
2019-01-14T03:09:13.471Z,6.95
2019-01-14T03:13:20.836Z,6.96
2019-01-14T03:17:27.942Z,6.99
2019-01-14T03:21:34.965Z,6.94
2019-01-14T03:25:45.305Z,6.93
2019-01-14T03:29:53.266Z,6.87
2019-01-14T03:34:00.391Z,6.82
2019-01-14T03:38:07.332Z,6.84
2019-01-14T03:42:17.521Z,6.89
2019-01-14T03:46:26.047Z,6.82
2019-01-14T03:50:33.039Z,6.77
2019-01-14T03:54:40.050Z,6.80
2019-01-14T03:58:47.074Z,6.70
2019-01-14T04:02:54.215Z,6.66
2019-01-14T04:07:01.073Z,6.66
2019-01-14T04:11:08.440Z,6.61
2019-01-14T04:15:18.686Z,6.62
2019-01-14T04:19:25.835Z,6.59
2019-01-14T04:23:32.992Z,6.58
2019-01-14T04:27:40.013Z,6.47
2019-01-14T04:31:47.211Z,6.51
2019-01-14T04:35:54.506Z,6.41
2019-01-14T04:40:01.603Z,6.41
2019-01-14T04:44:08.731Z,6.38
2019-01-14T04:48:15.691Z,6.35
2019-01-14T04:52:22.797Z,6.31
2019-01-14T05:00:51.808Z,6.25
2019-01-14T05:04:59.133Z,6.26
2019-01-14T05:09:09.579Z,6.37
2019-01-14T05:13:16.687Z,6.36
2019-01-14T05:17:23.816Z,6.35
2019-01-14T05:21:30.752Z,6.40
2019-01-14T05:25:39.480Z,6.42
2019-01-14T05:29:46.737Z,6.44
2019-01-14T05:34:26.436Z,6.45
2019-01-14T05:38:33.715Z,6.46
2019-01-14T05:42:42.801Z,6.55
2019-01-14T05:46:50.029Z,6.54
2019-01-14T05:50:57.151Z,6.58
2019-01-14T05:55:05.043Z,6.61
2019-01-14T05:59:13.842Z,6.48
2019-01-14T06:03:23.059Z,6.46
2019-01-14T06:07:31.121Z,6.54
2019-01-14T06:11:40.111Z,6.49
2019-01-14T06:15:47.317Z,6.41
2019-01-14T06:19:54.755Z,6.37
2019-01-14T06:24:02.946Z,6.37
2019-01-14T06:28:09.854Z,6.28
2019-01-14T06:32:16.810Z,6.28
2019-01-14T06:36:23.950Z,6.21
2019-01-14T06:40:34.385Z,6.25
2019-01-14T06:44:41.271Z,6.30
2019-01-14T06:48:48.395Z,6.39
2019-01-14T06:53:00.807Z,6.50
2019-01-14T06:57:11.363Z,6.63
2019-01-14T07:01:21.492Z,6.52
2019-01-14T07:05:33.720Z,6.44
2019-01-14T07:09:40.675Z,6.55
2019-01-14T07:13:58.408Z,6.44
2019-01-14T07:18:05.643Z,6.48
2019-01-14T07:22:18.283Z,6.39
2019-01-14T07:26:25.919Z,6.61
2019-01-14T07:30:32.972Z,6.38
2019-01-14T07:34:40.137Z,7.16
2019-01-14T07:38:47.259Z,6.62
2019-01-14T07:42:54.299Z,6.40
2019-01-14T07:47:06.574Z,6.35
2019-01-14T07:51:41.522Z,6.25
2019-01-14T07:55:48.719Z,6.25
2019-01-14T07:59:55.810Z,6.22
2019-01-14T08:04:12.572Z,6.27
2019-01-14T08:08:27.209Z,6.24
2019-01-14T08:12:36.958Z,6.22
2019-01-14T08:16:48.442Z,6.34
2019-01-14T08:20:55.709Z,6.42
2019-01-14T08:25:05.426Z,6.35
2019-01-14T08:29:12.899Z,6.27
2019-01-14T08:33:27.644Z,6.37
2019-01-14T08:37:37.915Z,6.23
2019-01-14T08:41:59.157Z,6.32
2019-01-14T08:46:06.191Z,6.24
2019-01-14T08:50:21.428Z,6.15
2019-01-14T08:54:40.753Z,6.34
2019-01-14T08:58:51.344Z,6.28
2019-01-14T09:03:07.429Z,6.15
2019-01-14T09:07:18.798Z,6.32
2019-01-14T09:11:26.634Z,6.36
2019-01-14T09:15:48.677Z,6.26
2019-01-14T09:19:57.967Z,6.39
2019-01-14T09:24:05.503Z,6.60
2019-01-14T09:28:14.480Z,6.54
2019-01-14T09:32:21.584Z,6.46
2019-01-14T09:36:37.038Z,6.60
2019-01-14T09:40:46.433Z,6.40
2019-01-14T09:44:55.985Z,6.39
2019-01-14T09:49:03.138Z,6.53
2019-01-14T09:53:14.711Z,6.40
2019-01-14T09:57:20.825Z,6.36
2019-01-14T10:01:28.116Z,6.22
2019-01-14T10:05:38.592Z,6.25
2019-01-14T10:09:55.475Z,6.20
2019-01-14T10:14:25.551Z,6.02
2019-01-14T10:18:42.405Z,6.00
2019-01-14T10:22:53.452Z,5.94
2019-01-14T10:27:02.506Z,5.88
2019-01-14T10:31:19.764Z,5.96
2019-01-14T10:35:25.564Z,5.89
2019-01-14T10:39:33.068Z,6.17
2019-01-14T10:43:41.807Z,6.08
2019-01-14T10:47:50.162Z,6.20
2019-01-14T10:52:07.483Z,6.26
2019-01-14T10:56:20.059Z,6.45
2019-01-14T11:00:29.953Z,6.38
2019-01-14T11:04:47.669Z,6.59
2019-01-14T11:09:05.739Z,6.78
2019-01-14T11:13:19.571Z,7.04
2019-01-14T11:17:28.115Z,6.90
2019-01-14T11:21:35.339Z,7.13
2019-01-14T11:25:43.860Z,6.97
2019-01-14T11:29:54.949Z,7.61
2019-01-14T11:34:08.366Z,7.48
2019-01-14T11:38:42.610Z,7.22
2019-01-14T11:43:00.889Z,7.08
2019-01-14T11:47:16.116Z,6.64
2019-01-14T11:51:32.177Z,6.97
2019-01-14T11:55:59.174Z,6.87
2019-01-14T12:00:21.374Z,7.00
2019-01-14T12:05:12.429Z,6.87
2019-01-14T12:10:09.780Z,8.11
2019-01-14T12:14:40.677Z,7.97
2019-01-14T12:19:16.205Z,8.38
2019-01-14T12:23:48.962Z,8.16
2019-01-14T12:28:20.530Z,7.60
2019-01-14T12:32:37.810Z,7.56
2019-01-14T12:36:49.953Z,7.45
2019-01-14T12:41:18.251Z,7.63
2019-01-14T12:45:36.269Z,8.28
2019-01-14T12:49:48.356Z,8.54
2019-01-14T12:54:28.341Z,8.10
2019-01-14T12:59:30.968Z,8.04
2019-01-14T13:03:49.108Z,7.65
2019-01-14T13:08:33.011Z,8.22
2019-01-14T13:12:59.865Z,8.01
2019-01-14T13:18:05.691Z,8.40
2019-01-14T13:28:01.261Z,7.60
2019-01-14T13:29:41.119Z,7.79
2019-01-14T13:32:56.766Z,7.64
2019-01-14T13:38:08.341Z,7.52
2019-01-14T13:43:26.618Z,7.33
2019-01-14T13:48:13.231Z,7.18
2019-01-14T13:53:27.506Z,6.93
2019-01-14T13:57:46.595Z,6.67
2019-01-14T14:02:08.617Z,6.66
2019-01-14T14:06:31.999Z,6.43
2019-01-14T14:11:19.092Z,6.31
2019-01-14T14:16:21.621Z,6.42
2019-01-14T14:21:06.929Z,6.36
2019-01-14T14:25:46.538Z,6.37
2019-01-14T14:30:34.324Z,6.36
2019-01-14T14:35:05.523Z,6.31
2019-01-14T14:39:24.210Z,6.24
2019-01-14T14:43:30.077Z,6.22
2019-01-14T14:47:45.736Z,6.18
2019-01-14T14:52:01.095Z,6.09
2019-01-14T14:56:10.332Z,6.02
2019-01-14T15:00:22.304Z,5.95
2019-01-14T15:04:32.728Z,5.88
2019-01-14T15:08:41.652Z,5.83
2019-01-14T15:12:54.829Z,5.77
2019-01-14T15:17:04.966Z,5.68
2019-01-14T15:21:18.008Z,5.71
2019-01-14T15:25:29.350Z,5.75
2019-01-14T15:29:38.001Z,5.63
2019-01-14T15:33:45.811Z,5.57
2019-01-14T15:37:53.849Z,5.57
2019-01-14T15:42:08.833Z,5.53
2019-01-14T15:46:16.808Z,5.42
2019-01-14T15:50:24.621Z,5.35
2019-01-14T15:54:43.767Z,5.24
2019-01-14T15:58:51.641Z,5.22
2019-01-14T16:02:58.988Z,5.20
2019-01-14T16:07:15.187Z,5.12
2019-01-14T16:11:27.973Z,5.08
2019-01-14T16:15:37.379Z,4.96
2019-01-14T16:19:45.241Z,4.94
2019-01-14T16:23:59.791Z,4.94
2019-01-14T16:28:07.064Z,4.83
2019-01-14T16:32:24.712Z,4.78
2019-01-14T16:36:35.423Z,4.79
2019-01-14T16:40:53.682Z,4.72
2019-01-14T16:45:15.284Z,4.67
2019-01-14T16:49:30.603Z,4.59
2019-01-14T16:53:46.089Z,4.57
2019-01-14T16:58:01.826Z,4.52
2019-01-14T17:02:18.175Z,4.47
2019-01-14T17:06:43.455Z,4.41
2019-01-14T17:11:25.629Z,4.34
2019-01-14T17:15:38.285Z,4.26
2019-01-14T17:19:50.763Z,4.18
2019-01-14T17:24:12.536Z,4.18
2019-01-14T17:28:30.384Z,4.09
2019-01-14T17:32:41.832Z,4.15
2019-01-14T17:36:50.766Z,4.13
2019-01-14T17:40:59.744Z,3.97
2019-01-14T17:45:10.835Z,4.05
2019-01-14T17:49:27.412Z,4.14
2019-01-14T17:53:47.072Z,3.91
2019-01-14T17:57:56.178Z,3.85
2019-01-14T18:02:04.652Z,3.96
2019-01-14T18:06:27.479Z,3.92
2019-01-14T18:10:52.108Z,3.96
2019-01-14T18:15:02.815Z,4.03
2019-01-14T18:19:45.412Z,4.07
2019-01-14T18:24:03.502Z,4.09
2019-01-14T18:28:22.521Z,4.17
2019-01-14T18:32:38.484Z,4.17
2019-01-14T18:37:44.377Z,4.28
2019-01-14T18:42:04.498Z,4.21
2019-01-14T18:46:18.372Z,4.02
2019-01-14T18:50:30.673Z,3.93
2019-01-14T18:55:01.265Z,3.74
2019-01-14T18:59:21.682Z,3.79
2019-01-14T19:03:38.522Z,3.64
2019-01-14T19:07:46.566Z,3.71
2019-01-14T19:11:56.695Z,3.48
2019-01-14T19:16:04.127Z,3.50
2019-01-14T19:20:21.977Z,3.59
2019-01-14T19:24:42.038Z,3.66
2019-01-14T19:28:49.408Z,3.84
2019-01-14T19:32:56.292Z,3.75
2019-01-14T19:37:08.440Z,3.73
2019-01-14T19:41:15.357Z,3.68
2019-01-14T19:45:23.471Z,3.72
2019-01-14T19:49:30.544Z,3.67
2019-01-14T19:53:37.563Z,3.77
2019-01-14T19:57:44.834Z,3.77
2019-01-14T20:01:51.955Z,3.82
2019-01-14T20:05:59.038Z,3.89
2019-01-14T20:10:08.734Z,3.93
2019-01-14T20:14:15.697Z,3.87
2019-01-14T20:18:24.077Z,3.96
2019-01-14T20:22:31.547Z,3.90
2019-01-14T20:26:40.513Z,3.93
2019-01-14T20:30:50.608Z,3.93
2019-01-14T20:34:57.847Z,4.64
2019-01-14T20:39:09.547Z,4.14
2019-01-14T20:43:25.249Z,4.20
2019-01-14T20:47:32.673Z,4.21
2019-01-14T20:51:39.892Z,4.37
2019-01-14T20:55:47.434Z,4.38
2019-01-14T20:59:56.516Z,4.31
2019-01-14T21:04:06.811Z,4.29
2019-01-14T21:08:14.004Z,4.27
2019-01-14T21:12:21.994Z,4.46
2019-01-14T21:16:29.055Z,4.35
2019-01-14T21:20:36.109Z,4.44
2019-01-14T21:24:43.254Z,4.32
2019-01-14T21:28:50.312Z,4.26
2019-01-14T21:32:57.651Z,4.26
2019-01-14T21:37:06.475Z,4.18
2019-01-14T21:41:17.744Z,4.39
2019-01-14T21:45:39.898Z,4.09
2019-01-14T21:50:16.888Z,4.06
2019-01-14T21:54:33.552Z,4.13
2019-01-14T21:58:44.954Z,4.07
2019-01-14T22:03:10.177Z,4.28
2019-01-14T22:07:22.955Z,4.16
2019-01-14T22:11:38.284Z,3.94
2019-01-14T22:15:41.651Z,3.96
2019-01-14T22:19:52.793Z,4.01
2019-01-14T22:23:59.744Z,3.95
2019-01-14T22:28:06.713Z,4.08
2019-01-14T22:32:14.018Z,4.01
2019-01-14T22:36:21.121Z,4.06
2019-01-14T22:40:28.196Z,4.04
2019-01-14T22:44:35.163Z,4.10
2019-01-14T22:48:42.169Z,4.11
2019-01-14T22:52:49.674Z,4.06
2019-01-14T22:56:56.946Z,4.06
2019-01-14T23:01:46.671Z,4.18
2019-01-14T23:05:54.844Z,4.14
2019-01-14T23:10:02.003Z,4.14
2019-01-14T23:14:09.068Z,4.08
2019-01-14T23:18:16.323Z,4.13
2019-01-14T23:22:23.227Z,4.15
2019-01-14T23:26:30.257Z,4.17
2019-01-14T23:30:37.534Z,4.09
2019-01-14T23:34:44.661Z,4.11
2019-01-14T23:38:51.861Z,4.14
2019-01-14T23:43:02.526Z,4.11
2019-01-14T23:47:09.896Z,4.12
2019-01-14T23:51:16.902Z,4.19
2019-01-14T23:55:24.168Z,4.15
2019-01-14T23:59:31.140Z,4.16
